createdAt,value
2017-11-08T00:00:20.028Z,94.18
2017-11-08T00:01:20.033Z,95.12
2017-11-08T00:02:20.021Z,95.12
2017-11-08T00:03:20.016Z,95.12
2017-11-08T00:04:20.012Z,95.12
2017-11-08T00:05:20.009Z,94.93
2017-11-08T00:06:20.004Z,95.31
2017-11-08T00:07:19.999Z,95.12
2017-11-08T00:08:19.994Z,95.03
2017-11-08T00:09:19.991Z,95.22
2017-11-08T00:10:20.049Z,94.56
2017-11-08T00:11:19.982Z,94.84
2017-11-08T00:12:20.032Z,93.99
2017-11-08T00:13:19.974Z,94.08
2017-11-08T00:14:19.971Z,94.08
2017-11-08T00:15:19.967Z,94.74
2017-11-08T00:16:19.962Z,95.03
2017-11-08T00:17:19.956Z,95.31
2017-11-08T00:18:19.954Z,95.22
2017-11-08T00:19:19.947Z,94.93
2017-11-08T00:20:19.945Z,95.03
2017-11-08T00:21:19.942Z,95.22
2017-11-08T00:22:19.945Z,94.74
2017-11-08T00:23:19.933Z,94.84
2017-11-08T00:24:19.928Z,94.84
2017-11-08T00:25:19.924Z,94.93
2017-11-08T00:26:19.920Z,95.31
2017-11-08T00:27:19.914Z,95.60
2017-11-08T00:28:19.910Z,95.69
2017-11-08T00:29:19.955Z,95.12
2017-11-08T00:30:19.903Z,95.74
2017-11-08T00:31:19.900Z,95.55
2017-11-08T00:32:19.893Z,96.12
2017-11-08T00:33:19.889Z,95.84
2017-11-08T00:34:19.885Z,95.55
2017-11-08T00:35:19.929Z,95.65
2017-11-08T00:36:19.876Z,95.93
2017-11-08T00:37:19.871Z,95.74
2017-11-08T00:38:19.869Z,95.84
2017-11-08T00:39:19.863Z,95.41
2017-11-08T00:40:19.860Z,95.17
2017-11-08T00:41:19.860Z,95.17
2017-11-08T00:42:19.850Z,95.17
2017-11-08T00:43:19.846Z,95.26
2017-11-08T00:44:19.841Z,94.89
2017-11-08T00:45:19.837Z,95.36
2017-11-08T00:46:19.832Z,95.36
2017-11-08T00:47:19.827Z,95.36
2017-11-08T00:48:19.824Z,95.26
2017-11-08T00:49:19.820Z,95.55
2017-11-08T00:50:19.816Z,95.55
2017-11-08T00:51:19.810Z,95.55
2017-11-08T00:52:19.805Z,94.89
2017-11-08T00:53:19.801Z,95.36
2017-11-08T00:54:19.797Z,95.07
2017-11-08T00:55:19.792Z,94.89
2017-11-08T00:56:19.789Z,95.07
2017-11-08T00:57:19.785Z,95.65
2017-11-08T00:58:19.780Z,95.84
2017-11-08T00:59:19.775Z,95.84
2017-11-08T01:00:19.771Z,95.65
2017-11-08T01:01:19.766Z,95.55
2017-11-08T01:02:19.762Z,95.55
2017-11-08T01:03:19.757Z,95.36
2017-11-08T01:04:19.753Z,95.55
2017-11-08T01:05:19.749Z,95.74
2017-11-08T01:06:19.745Z,95.84
2017-11-08T01:07:19.739Z,96.22
2017-11-08T01:08:19.735Z,96.12
2017-11-08T01:09:19.730Z,96.50
2017-11-08T01:10:19.726Z,96.12
2017-11-08T01:11:19.723Z,95.93
2017-11-08T01:12:19.717Z,96.41
2017-11-08T01:13:19.712Z,96.31
2017-11-08T01:14:19.709Z,96.41
2017-11-08T01:15:19.702Z,96.50
2017-11-08T01:16:19.700Z,96.50
2017-11-08T01:17:19.710Z,96.69
2017-11-08T01:18:19.690Z,97.07
2017-11-08T01:19:19.684Z,97.45
2017-11-08T01:20:19.680Z,96.97
2017-11-08T01:21:19.677Z,96.88
2017-11-08T01:22:19.681Z,96.97
2017-11-08T01:23:19.665Z,97.73
2017-11-08T01:24:19.661Z,97.26
2017-11-08T01:25:19.657Z,97.26
2017-11-08T01:26:19.655Z,96.88
2017-11-08T01:27:19.697Z,96.97
2017-11-08T01:28:19.643Z,96.22
2017-11-08T01:29:19.639Z,96.41
2017-11-08T01:30:19.634Z,96.12
2017-11-08T01:31:19.629Z,95.93
2017-11-08T01:32:19.624Z,95.45
2017-11-08T01:33:19.621Z,95.07
2017-11-08T01:34:19.615Z,95.17
2017-11-08T01:35:19.610Z,93.84
2017-11-08T01:36:19.607Z,94.04
2017-11-08T01:37:19.615Z,94.42
2017-11-08T01:38:19.598Z,94.23
2017-11-08T01:39:19.595Z,93.56
2017-11-08T01:40:19.589Z,93.75
2017-11-08T01:41:19.585Z,94.13
2017-11-08T01:42:19.579Z,93.94
2017-11-08T01:43:19.574Z,93.94
2017-11-08T01:44:19.569Z,93.94
2017-11-08T01:45:19.565Z,94.04
2017-11-08T01:46:19.560Z,94.32
2017-11-08T01:47:19.555Z,94.13
2017-11-08T01:48:19.551Z,94.13
2017-11-08T01:49:19.546Z,95.07
2017-11-08T01:50:19.541Z,95.26
2017-11-08T01:51:19.536Z,94.51
2017-11-08T01:52:19.533Z,95.17
2017-11-08T01:53:19.528Z,95.36
2017-11-08T01:54:19.523Z,94.60
2017-11-08T01:55:19.518Z,94.32
2017-11-08T01:56:19.513Z,94.13
2017-11-08T01:57:19.512Z,93.46
2017-11-08T01:58:19.505Z,93.94
2017-11-08T01:59:19.499Z,94.42
2017-11-08T02:00:19.495Z,94.70
2017-11-08T02:01:19.492Z,95.36
2017-11-08T02:02:19.486Z,95.17
2017-11-08T02:03:19.480Z,95.17
2017-11-08T02:04:19.477Z,95.07
2017-11-08T02:05:19.472Z,95.07
2017-11-08T02:06:19.467Z,95.74
2017-11-08T02:07:19.462Z,95.74
2017-11-08T02:08:19.458Z,95.93
2017-11-08T02:09:19.453Z,95.93
2017-11-08T02:10:19.449Z,95.93
2017-11-08T02:11:19.443Z,95.74
2017-11-08T02:12:19.440Z,95.93
2017-11-08T02:13:19.435Z,95.45
2017-11-08T02:14:19.430Z,95.93
2017-11-08T02:15:19.425Z,95.84
2017-11-08T02:16:19.421Z,96.12
2017-11-08T02:17:19.415Z,96.31
2017-11-08T02:18:19.410Z,96.41
2017-11-08T02:19:19.405Z,96.12
2017-11-08T02:20:19.400Z,95.93
2017-11-08T02:21:19.396Z,95.93
2017-11-08T02:22:19.391Z,96.41
2017-11-08T02:23:19.385Z,95.84
2017-11-08T02:24:19.381Z,95.26
2017-11-08T02:25:19.377Z,95.36
2017-11-08T02:26:19.372Z,95.74
2017-11-08T02:27:19.366Z,95.65
2017-11-08T02:28:19.362Z,95.65
2017-11-08T02:29:19.358Z,95.36
2017-11-08T02:30:19.353Z,95.36
2017-11-08T02:31:19.347Z,94.79
2017-11-08T02:32:19.344Z,94.98
2017-11-08T02:33:19.339Z,95.17
2017-11-08T02:34:19.335Z,94.79
2017-11-08T02:35:19.334Z,94.51
2017-11-08T02:36:19.326Z,94.89
2017-11-08T02:37:19.321Z,95.17
2017-11-08T02:38:19.326Z,95.26
2017-11-08T02:39:19.312Z,95.36
2017-11-08T02:40:19.306Z,94.89
2017-11-08T02:41:19.302Z,95.07
2017-11-08T02:42:19.297Z,94.79
2017-11-08T02:43:19.290Z,94.89
2017-11-08T02:44:19.287Z,94.23
2017-11-08T02:45:19.284Z,94.51
2017-11-08T02:46:19.279Z,94.70
2017-11-08T02:47:19.276Z,94.79
2017-11-08T02:48:19.321Z,94.51
2017-11-08T02:49:19.266Z,94.51
2017-11-08T02:50:19.262Z,94.51
2017-11-08T02:51:19.256Z,94.51
2017-11-08T02:52:19.252Z,94.70
2017-11-08T02:53:19.249Z,94.89
2017-11-08T02:54:19.296Z,95.07
2017-11-08T02:55:19.237Z,95.55
2017-11-08T02:56:19.233Z,96.50
2017-11-08T02:57:19.230Z,96.55
2017-11-08T02:58:19.225Z,96.73
2017-11-08T02:59:19.219Z,96.92
2017-11-08T03:00:19.215Z,96.92
2017-11-08T03:01:19.210Z,96.83
2017-11-08T03:02:19.205Z,97.45
2017-11-08T03:03:19.200Z,96.97
2017-11-08T03:04:19.195Z,96.41
2017-11-08T03:05:19.191Z,96.73
2017-11-08T03:06:19.186Z,96.64
2017-11-08T03:07:19.181Z,96.73
2017-11-08T03:08:19.177Z,96.73
2017-11-08T03:09:19.172Z,97.11
2017-11-08T03:10:19.167Z,97.11
2017-11-08T03:11:19.162Z,97.02
2017-11-08T03:12:19.157Z,97.49
2017-11-08T03:13:19.153Z,97.02
2017-11-08T03:14:19.147Z,97.40
2017-11-08T03:15:19.140Z,96.78
2017-11-08T03:16:19.138Z,96.59
2017-11-08T03:17:19.132Z,96.03
2017-11-08T03:18:19.131Z,96.41
2017-11-08T03:19:19.123Z,95.84
2017-11-08T03:20:19.118Z,95.74
2017-11-08T03:21:19.114Z,94.89
2017-11-08T03:22:19.110Z,94.89
2017-11-08T03:23:19.104Z,95.07
2017-11-08T03:24:19.100Z,95.36
2017-11-08T03:25:19.094Z,95.07
2017-11-08T03:26:19.090Z,95.55
2017-11-08T03:27:19.084Z,95.17
2017-11-08T03:28:19.130Z,95.07
2017-11-08T03:29:19.076Z,95.26
2017-11-08T03:30:19.122Z,95.36
2017-11-08T03:31:19.083Z,95.55
2017-11-08T03:32:19.061Z,95.45
2017-11-08T03:33:19.057Z,95.84
2017-11-08T03:34:19.053Z,96.12
2017-11-08T03:35:19.047Z,95.74
2017-11-08T03:36:19.042Z,95.74
2017-11-08T03:37:19.038Z,95.93
2017-11-08T03:38:19.033Z,96.03
2017-11-08T03:39:19.039Z,95.93
2017-11-08T03:40:19.022Z,95.65
2017-11-08T03:41:19.020Z,95.93
2017-11-08T03:42:19.014Z,95.74
2017-11-08T03:43:19.008Z,95.17
2017-11-08T03:44:19.004Z,95.17
2017-11-08T03:45:19.000Z,95.36
2017-11-08T03:46:19.002Z,95.17
2017-11-08T03:47:18.990Z,95.65
2017-11-08T03:48:18.985Z,95.45
2017-11-08T03:49:18.981Z,95.07
2017-11-08T03:50:18.976Z,95.07
2017-11-08T03:51:18.971Z,95.55
2017-11-08T03:52:18.971Z,95.84
2017-11-08T03:53:18.961Z,95.93
2017-11-08T03:54:18.956Z,95.98
2017-11-08T03:55:18.952Z,95.88
2017-11-08T03:56:18.947Z,96.45
2017-11-08T03:57:18.941Z,96.88
2017-11-08T03:58:18.937Z,96.41
2017-11-08T03:59:18.932Z,96.36
2017-11-08T04:00:18.927Z,96.03
2017-11-08T04:01:18.923Z,95.31
2017-11-08T04:02:18.922Z,95.36
2017-11-08T04:03:18.919Z,95.65
2017-11-08T04:04:18.909Z,96.22
2017-11-08T04:05:18.903Z,95.65
2017-11-08T04:06:18.898Z,95.07
2017-11-08T04:07:18.894Z,95.17
2017-11-08T04:08:18.889Z,95.17
2017-11-08T04:09:18.884Z,94.79
2017-11-08T04:10:18.880Z,94.42
2017-11-08T04:11:18.879Z,95.17
2017-11-08T04:12:18.871Z,94.42
2017-11-08T04:13:18.867Z,94.89
2017-11-08T04:14:18.861Z,94.98
2017-11-08T04:15:18.855Z,95.07
2017-11-08T04:16:18.852Z,95.17
2017-11-08T04:17:18.846Z,94.42
2017-11-08T04:18:18.843Z,94.13
2017-11-08T04:19:18.836Z,94.70
2017-11-08T04:20:18.831Z,95.17
2017-11-08T04:21:18.828Z,94.70
2017-11-08T04:22:18.823Z,94.23
2017-11-08T04:23:18.817Z,94.51
2017-11-08T04:24:18.813Z,93.94
2017-11-08T04:25:18.809Z,93.37
2017-11-08T04:26:18.804Z,93.65
2017-11-08T04:27:18.798Z,93.37
2017-11-08T04:28:18.794Z,93.75
2017-11-08T04:29:18.790Z,93.84
2017-11-08T04:30:18.787Z,93.75
2017-11-08T04:31:18.781Z,94.04
2017-11-08T04:32:18.776Z,93.75
2017-11-08T04:33:18.772Z,94.42
2017-11-08T04:34:18.769Z,94.23
2017-11-08T04:35:18.762Z,94.51
2017-11-08T04:36:18.757Z,94.42
2017-11-08T04:37:18.753Z,94.42
2017-11-08T04:38:18.748Z,94.23
2017-11-08T04:39:18.742Z,94.32
2017-11-08T04:40:18.738Z,94.13
2017-11-08T04:41:18.734Z,94.32
2017-11-08T04:42:18.730Z,94.70
2017-11-08T04:43:18.724Z,94.51
2017-11-08T04:44:18.732Z,94.51
2017-11-08T04:45:18.717Z,94.70
2017-11-08T04:46:18.711Z,94.51
2017-11-08T04:47:18.705Z,95.07
2017-11-08T04:48:18.700Z,95.17
2017-11-08T04:49:18.696Z,94.89
2017-11-08T04:50:18.692Z,95.17
2017-11-08T04:51:18.687Z,94.98
2017-11-08T04:52:18.682Z,95.12
2017-11-08T04:53:18.677Z,95.22
2017-11-08T04:54:18.672Z,95.17
2017-11-08T04:55:18.668Z,95.03
2017-11-08T04:56:18.663Z,94.60
2017-11-08T04:57:18.659Z,95.03
2017-11-08T04:58:18.654Z,94.89
2017-11-08T04:59:18.648Z,95.03
2017-11-08T05:00:18.643Z,94.98
2017-11-08T05:01:18.640Z,94.89
2017-11-08T05:02:18.635Z,94.13
2017-11-08T05:03:18.630Z,94.42
2017-11-08T05:04:18.623Z,94.32
2017-11-08T05:05:18.620Z,94.23
2017-11-08T05:06:18.614Z,94.74
2017-11-08T05:07:18.609Z,94.70
2017-11-08T05:08:18.606Z,94.89
2017-11-08T05:09:18.601Z,94.42
2017-11-08T05:10:18.599Z,94.04
2017-11-08T05:11:18.590Z,94.42
2017-11-08T05:12:18.586Z,94.42
2017-11-08T05:13:18.584Z,94.04
2017-11-08T05:14:18.576Z,94.23
2017-11-08T05:15:18.574Z,94.42
2017-11-08T05:16:18.565Z,94.32
2017-11-08T05:17:18.563Z,94.04
2017-11-08T05:18:18.556Z,94.18
2017-11-08T05:19:18.550Z,93.89
2017-11-08T05:20:18.548Z,94.27
2017-11-08T05:21:18.543Z,94.37
2017-11-08T05:22:18.538Z,95.03
2017-11-08T05:23:18.533Z,95.03
2017-11-08T05:24:18.527Z,95.98
2017-11-08T05:25:18.529Z,96.36
2017-11-08T05:26:18.518Z,96.64
2017-11-08T05:27:18.513Z,97.30
2017-11-08T05:28:18.508Z,97.40
2017-11-08T05:29:18.503Z,97.21
2017-11-08T05:30:18.798Z,97.40
2017-11-08T05:31:18.491Z,97.11
2017-11-08T05:32:18.487Z,96.83
2017-11-08T05:33:18.482Z,96.83
2017-11-08T05:34:18.478Z,96.73
2017-11-08T05:35:18.472Z,96.73
2017-11-08T05:36:18.767Z,96.83
2017-11-08T05:37:18.464Z,96.55
2017-11-08T05:38:18.457Z,96.73
2017-11-08T05:39:18.452Z,96.83
2017-11-08T05:40:18.446Z,97.02
2017-11-08T05:41:18.442Z,96.73
2017-11-08T05:42:18.436Z,97.02
2017-11-08T05:43:18.429Z,96.64
2017-11-08T05:44:18.425Z,96.45
2017-11-08T05:45:18.422Z,95.98
2017-11-08T05:46:18.417Z,96.26
2017-11-08T05:47:18.410Z,96.36
2017-11-08T05:48:18.455Z,96.17
2017-11-08T05:49:18.400Z,97.11
2017-11-08T05:50:18.396Z,97.21
2017-11-08T05:51:18.390Z,97.11
2017-11-08T05:52:18.385Z,97.21
2017-11-08T05:53:18.379Z,97.40
2017-11-08T05:54:18.375Z,97.30
2017-11-08T05:55:18.370Z,97.21
2017-11-08T05:56:18.364Z,97.87
2017-11-08T05:57:18.359Z,97.49
2017-11-08T05:58:18.354Z,98.16
2017-11-08T05:59:18.349Z,98.06
2017-11-08T06:00:18.342Z,98.25
2017-11-08T06:01:18.338Z,97.40
2017-11-08T06:02:18.333Z,97.59
2017-11-08T06:03:18.326Z,97.68
2017-11-08T06:04:18.322Z,97.59
2017-11-08T06:05:18.318Z,97.59
2017-11-08T06:06:18.365Z,96.73
2017-11-08T06:07:18.307Z,97.30
2017-11-08T06:08:18.302Z,97.40
2017-11-08T06:09:18.296Z,97.30
2017-11-08T06:10:18.341Z,96.73
2017-11-08T06:11:18.286Z,97.21
2017-11-08T06:12:18.281Z,97.21
2017-11-08T06:13:18.276Z,97.11
2017-11-08T06:14:18.271Z,97.40
2017-11-08T06:15:18.264Z,96.73
2017-11-08T06:16:18.260Z,96.55
2017-11-08T06:17:18.255Z,96.36
2017-11-08T06:18:18.248Z,96.26
2017-11-08T06:19:18.244Z,96.36
2017-11-08T06:20:18.239Z,95.98
2017-11-08T06:21:18.235Z,95.88
2017-11-08T06:22:18.230Z,96.07
2017-11-08T06:23:18.224Z,95.79
2017-11-08T06:24:18.219Z,95.88
2017-11-08T06:25:18.214Z,95.60
2017-11-08T06:26:18.210Z,95.98
2017-11-08T06:27:18.203Z,95.98
2017-11-08T06:28:18.199Z,95.60
2017-11-08T06:29:18.199Z,95.31
2017-11-08T06:30:18.189Z,95.50
2017-11-08T06:31:18.183Z,95.41
2017-11-08T06:32:18.179Z,95.50
2017-11-08T06:33:18.173Z,95.31
2017-11-08T06:34:18.170Z,95.74
2017-11-08T06:35:18.164Z,95.03
2017-11-08T06:36:18.158Z,95.36
2017-11-08T06:37:18.155Z,94.74
2017-11-08T06:38:18.152Z,95.07
2017-11-08T06:39:18.146Z,95.03
2017-11-08T06:40:18.191Z,95.50
2017-11-08T06:41:18.136Z,95.12
2017-11-08T06:42:18.130Z,95.88
2017-11-08T06:43:18.125Z,95.88
2017-11-08T06:44:18.121Z,96.45
2017-11-08T06:45:18.116Z,96.17
2017-11-08T06:46:18.112Z,96.36
2017-11-08T06:47:18.107Z,95.84
2017-11-08T06:48:18.101Z,95.31
2017-11-08T06:49:18.104Z,95.36
2017-11-08T06:50:18.093Z,95.26
2017-11-08T06:51:18.089Z,95.36
2017-11-08T06:52:18.083Z,94.70
2017-11-08T06:53:18.079Z,93.32
2017-11-08T06:54:18.074Z,91.52
2017-11-08T06:55:18.118Z,89.58
2017-11-08T06:56:18.069Z,88.15
2017-11-08T06:57:18.060Z,87.77
2017-11-08T06:58:18.057Z,87.49
2017-11-08T06:59:18.052Z,87.58
2017-11-08T07:00:18.047Z,87.58
2017-11-08T07:01:18.044Z,87.30
2017-11-08T07:02:18.042Z,87.68
2017-11-08T07:03:18.035Z,87.20
2017-11-08T07:04:18.032Z,87.30
2017-11-08T07:05:18.033Z,88.39
2017-11-08T07:06:18.026Z,89.25
2017-11-08T07:07:18.021Z,90.10
2017-11-08T07:08:18.018Z,90.00
2017-11-08T07:09:18.013Z,90.57
2017-11-08T07:10:18.011Z,90.95
2017-11-08T07:11:18.056Z,90.57
2017-11-08T07:12:18.006Z,89.62
2017-11-08T07:13:17.999Z,89.39
2017-11-08T07:14:17.997Z,89.29
2017-11-08T07:15:17.994Z,89.29
2017-11-08T07:16:17.996Z,88.10
2017-11-08T07:17:17.988Z,86.77
2017-11-08T07:18:17.987Z,85.30
2017-11-08T07:19:17.987Z,83.59
2017-11-08T07:20:17.984Z,81.44
2017-11-08T07:21:17.983Z,79.63
2017-11-08T07:22:17.985Z,79.01
2017-11-08T07:23:17.981Z,78.25
2017-11-08T07:24:17.981Z,77.87
2017-11-08T07:25:17.980Z,77.68
2017-11-08T07:26:17.981Z,77.20
2017-11-08T07:27:17.981Z,76.10
2017-11-08T07:28:17.982Z,74.04
2017-11-08T07:29:17.984Z,73.19
2017-11-08T07:30:17.984Z,72.52
2017-11-08T07:31:17.993Z,71.42
2017-11-08T07:32:17.988Z,70.65
2017-11-08T07:33:17.991Z,69.89
2017-11-08T07:34:17.992Z,69.42
2017-11-08T07:35:17.994Z,69.60
2017-11-08T07:36:17.998Z,68.75
2017-11-08T07:37:18.049Z,68.81
2017-11-08T07:38:18.003Z,70.52
2017-11-08T07:39:18.006Z,70.62
2017-11-08T07:40:18.010Z,69.85
2017-11-08T07:41:18.012Z,71.47
2017-11-08T07:42:18.016Z,71.28
2017-11-08T07:43:18.018Z,70.18
2017-11-08T07:44:18.028Z,69.23
2017-11-08T07:45:18.027Z,68.56
2017-11-08T07:46:18.030Z,69.35
2017-11-08T07:47:18.038Z,68.30
2017-11-08T07:48:18.036Z,67.07
2017-11-08T07:49:18.039Z,65.39
2017-11-08T07:50:18.044Z,63.04
2017-11-08T07:51:18.046Z,60.58
2017-11-08T07:52:18.052Z,59.56
2017-11-08T07:53:18.058Z,58.42
2017-11-08T07:54:18.062Z,58.61
2017-11-08T07:55:18.070Z,58.42
2017-11-08T07:56:18.071Z,57.31
2017-11-08T07:57:18.079Z,56.89
2017-11-08T07:58:18.084Z,57.65
2017-11-08T07:59:18.132Z,58.75
2017-11-08T08:00:18.092Z,61.48
2017-11-08T08:01:18.099Z,62.68
2017-11-08T08:02:18.102Z,63.54
2017-11-08T08:03:18.106Z,64.75
2017-11-08T08:04:18.111Z,67.67
2017-11-08T08:05:18.113Z,69.44
2017-11-08T08:06:18.119Z,71.34
2017-11-08T08:07:18.120Z,72.45
2017-11-08T08:08:18.124Z,73.74
2017-11-08T08:09:18.127Z,74.41
2017-11-08T08:10:18.138Z,74.73
2017-11-08T08:11:18.130Z,73.30
2017-11-08T08:12:18.132Z,73.59
2017-11-08T08:13:18.135Z,73.88
2017-11-08T08:14:18.149Z,74.82
2017-11-08T08:15:18.137Z,75.02
2017-11-08T08:16:18.140Z,74.07
2017-11-08T08:17:18.142Z,73.59
2017-11-08T08:18:18.143Z,73.59
2017-11-08T08:19:18.143Z,73.53
2017-11-08T08:20:18.145Z,73.34
2017-11-08T08:21:18.154Z,72.58
2017-11-08T08:22:18.150Z,73.06
2017-11-08T08:23:18.150Z,72.20
2017-11-08T08:24:18.151Z,72.77
2017-11-08T08:25:18.155Z,71.91
2017-11-08T08:26:18.156Z,72.67
2017-11-08T08:27:18.209Z,72.77
2017-11-08T08:28:18.158Z,72.64
2017-11-08T08:29:18.163Z,73.49
2017-11-08T08:30:18.161Z,74.73
2017-11-08T08:31:18.162Z,76.12
2017-11-08T08:32:18.163Z,76.88
2017-11-08T08:33:18.163Z,77.64
2017-11-08T08:34:18.165Z,78.27
2017-11-08T08:35:18.164Z,79.41
2017-11-08T08:36:18.164Z,80.83
2017-11-08T08:37:18.166Z,80.88
2017-11-08T08:38:18.166Z,82.03
2017-11-08T08:39:18.164Z,82.59
2017-11-08T08:40:18.164Z,83.26
2017-11-08T08:41:18.164Z,82.82
2017-11-08T08:42:18.165Z,82.73
2017-11-08T08:43:18.162Z,80.58
2017-11-08T08:44:18.162Z,79.06
2017-11-08T08:45:18.161Z,78.59
2017-11-08T08:46:18.177Z,78.40
2017-11-08T08:47:18.160Z,78.78
2017-11-08T08:48:18.159Z,78.50
2017-11-08T08:49:18.160Z,78.21
2017-11-08T08:50:18.160Z,79.35
2017-11-08T08:51:18.159Z,78.59
2017-11-08T08:52:18.159Z,79.44
2017-11-08T08:53:18.158Z,78.88
2017-11-08T08:54:18.159Z,79.06
2017-11-08T08:55:18.157Z,78.88
2017-11-08T08:56:18.165Z,79.06
2017-11-08T08:57:18.157Z,78.11
2017-11-08T08:58:18.156Z,78.02
2017-11-08T08:59:18.156Z,77.77
2017-11-08T09:00:18.155Z,75.68
2017-11-08T09:01:18.154Z,74.54
2017-11-08T09:02:18.205Z,73.78
2017-11-08T09:03:18.154Z,74.35
2017-11-08T09:04:18.154Z,74.35
2017-11-08T09:05:18.155Z,74.92
2017-11-08T09:06:18.155Z,74.92
2017-11-08T09:07:18.153Z,73.82
2017-11-08T09:08:18.155Z,72.96
2017-11-08T09:09:18.155Z,70.58
2017-11-08T09:10:18.156Z,70.30
2017-11-08T09:11:18.155Z,70.90
2017-11-08T09:12:18.159Z,70.14
2017-11-08T09:13:18.157Z,71.09
2017-11-08T09:14:18.160Z,71.19
2017-11-08T09:15:18.160Z,69.82
2017-11-08T09:16:18.166Z,70.58
2017-11-08T09:17:18.163Z,71.15
2017-11-08T09:18:18.165Z,71.63
2017-11-08T09:19:18.165Z,72.11
2017-11-08T09:20:18.171Z,71.15
2017-11-08T09:21:18.169Z,71.19
2017-11-08T09:22:18.171Z,71.38
2017-11-08T09:23:18.172Z,69.38
2017-11-08T09:24:18.174Z,69.48
2017-11-08T09:25:18.175Z,68.81
2017-11-08T09:26:18.177Z,69.29
2017-11-08T09:27:18.178Z,69.51
2017-11-08T09:28:18.180Z,69.79
2017-11-08T09:29:18.184Z,68.65
2017-11-08T09:30:18.189Z,68.71
2017-11-08T09:31:18.187Z,68.81
2017-11-08T09:32:18.189Z,70.24
2017-11-08T09:33:18.241Z,69.60
2017-11-08T09:34:18.193Z,69.13
2017-11-08T09:35:18.194Z,68.02
2017-11-08T09:36:18.196Z,66.40
2017-11-08T09:37:18.207Z,65.36
2017-11-08T09:38:18.202Z,65.07
2017-11-08T09:39:18.203Z,65.73
2017-11-08T09:40:18.206Z,66.85
2017-11-08T09:41:18.211Z,67.76
2017-11-08T09:42:18.213Z,68.71
2017-11-08T09:43:18.213Z,69.15
2017-11-08T09:44:18.215Z,69.92
2017-11-08T09:45:18.268Z,69.92
2017-11-08T09:46:18.219Z,70.58
2017-11-08T09:47:18.220Z,71.34
2017-11-08T09:48:18.221Z,72.01
2017-11-08T09:49:18.224Z,72.74
2017-11-08T09:50:18.225Z,73.40
2017-11-08T09:51:18.225Z,73.88
2017-11-08T09:52:18.225Z,73.78
2017-11-08T09:53:18.226Z,73.72
2017-11-08T09:54:18.226Z,73.53
2017-11-08T09:55:18.227Z,72.26
2017-11-08T09:56:18.227Z,73.88
2017-11-08T09:57:18.227Z,74.20
2017-11-08T09:58:18.228Z,73.88
2017-11-08T09:59:18.228Z,73.72
2017-11-08T10:00:18.228Z,73.30
2017-11-08T10:01:18.227Z,72.86
2017-11-08T10:02:18.228Z,73.63
2017-11-08T10:03:18.228Z,73.44
2017-11-08T10:04:18.228Z,71.82
2017-11-08T10:05:18.228Z,71.82
2017-11-08T10:06:18.254Z,71.53
2017-11-08T10:07:18.233Z,70.97
2017-11-08T10:08:18.230Z,71.34
2017-11-08T10:09:18.247Z,71.91
2017-11-08T10:10:18.230Z,72.49
2017-11-08T10:11:18.229Z,73.44
2017-11-08T10:12:18.318Z,73.82
2017-11-08T10:13:18.261Z,74.54
2017-11-08T10:14:18.241Z,76.16
2017-11-08T10:15:18.248Z,75.87
2017-11-08T10:16:18.227Z,75.21
2017-11-08T10:17:18.226Z,76.16
2017-11-08T10:18:18.226Z,76.25
2017-11-08T10:19:18.224Z,76.06
2017-11-08T10:20:18.276Z,76.35
2017-11-08T10:21:18.284Z,77.20
2017-11-08T10:22:18.224Z,75.78
2017-11-08T10:23:18.222Z,75.78
2017-11-08T10:24:18.222Z,76.03
2017-11-08T10:25:18.223Z,76.44
2017-11-08T10:26:18.220Z,77.01
2017-11-08T10:27:18.224Z,76.25
2017-11-08T10:28:18.218Z,77.11
2017-11-08T10:29:18.222Z,77.49
2017-11-08T10:30:18.218Z,77.77
2017-11-08T10:31:18.214Z,77.83
2017-11-08T10:32:18.213Z,78.11
2017-11-08T10:33:18.211Z,78.88
2017-11-08T10:34:18.211Z,79.16
2017-11-08T10:35:18.207Z,79.92
2017-11-08T10:36:18.208Z,80.49
2017-11-08T10:37:18.206Z,80.87
2017-11-08T10:38:18.254Z,79.63
2017-11-08T10:39:18.203Z,80.68
2017-11-08T10:40:18.202Z,81.35
2017-11-08T10:41:18.203Z,81.16
2017-11-08T10:42:18.163Z,81.54
2017-11-08T10:43:18.165Z,81.54
2017-11-08T10:44:18.173Z,81.21
2017-11-08T10:45:18.156Z,81.59
2017-11-08T10:46:18.156Z,81.68
2017-11-08T10:47:18.153Z,82.07
2017-11-08T10:48:18.152Z,82.64
2017-11-08T10:49:18.149Z,82.45
2017-11-08T10:50:18.149Z,82.54
2017-11-08T10:51:18.145Z,82.73
2017-11-08T10:52:18.142Z,83.39
2017-11-08T10:53:18.140Z,83.20
2017-11-08T10:54:18.143Z,82.54
2017-11-08T10:55:18.137Z,82.16
2017-11-08T10:56:18.134Z,81.68
2017-11-08T10:57:18.131Z,82.35
2017-11-08T10:58:18.127Z,82.45
2017-11-08T10:59:18.125Z,82.35
2017-11-08T11:00:18.126Z,82.16
2017-11-08T11:01:18.122Z,82.35
2017-11-08T11:02:18.128Z,82.26
2017-11-08T11:03:18.117Z,81.87
2017-11-08T11:04:18.116Z,81.21
2017-11-08T11:05:18.115Z,82.16
2017-11-08T11:06:18.112Z,81.59
2017-11-08T11:07:18.108Z,81.21
2017-11-08T11:08:18.110Z,81.21
2017-11-08T11:09:18.105Z,81.68
2017-11-08T11:10:18.104Z,82.26
2017-11-08T11:11:18.100Z,82.54
2017-11-08T11:12:18.099Z,80.93
2017-11-08T11:13:18.098Z,80.93
2017-11-08T11:14:18.095Z,79.97
2017-11-08T11:15:18.092Z,80.64
2017-11-08T11:16:18.097Z,80.55
2017-11-08T11:17:18.088Z,80.55
2017-11-08T11:18:18.087Z,80.55
2017-11-08T11:19:18.084Z,81.21
2017-11-08T11:20:18.081Z,81.21
2017-11-08T11:21:18.079Z,80.83
2017-11-08T11:22:18.079Z,80.83
2017-11-08T11:23:18.076Z,81.12
2017-11-08T11:24:18.073Z,80.93
2017-11-08T11:25:18.071Z,81.68
2017-11-08T11:26:18.072Z,81.97
2017-11-08T11:27:18.067Z,82.07
2017-11-08T11:28:18.066Z,82.07
2017-11-08T11:29:18.064Z,82.07
2017-11-08T11:30:18.080Z,83.01
2017-11-08T11:31:18.058Z,83.20
2017-11-08T11:32:18.059Z,82.16
2017-11-08T11:33:18.054Z,81.87
2017-11-08T11:34:18.053Z,81.87
2017-11-08T11:35:18.049Z,81.59
2017-11-08T11:36:18.049Z,81.78
2017-11-08T11:37:18.046Z,82.26
2017-11-08T11:38:18.043Z,82.54
2017-11-08T11:39:18.040Z,82.73
2017-11-08T11:40:18.039Z,81.97
2017-11-08T11:41:18.037Z,81.30
2017-11-08T11:42:18.035Z,81.40
2017-11-08T11:43:18.033Z,80.93
2017-11-08T11:44:18.030Z,82.26
2017-11-08T11:45:18.028Z,82.16
2017-11-08T11:46:18.027Z,82.73
2017-11-08T11:47:18.021Z,82.82
2017-11-08T11:48:18.022Z,81.97
2017-11-08T11:49:18.019Z,80.64
2017-11-08T11:50:18.018Z,79.79
2017-11-08T11:51:18.019Z,80.55
2017-11-08T11:52:18.012Z,80.16
2017-11-08T11:53:18.011Z,80.45
2017-11-08T11:54:18.008Z,80.64
2017-11-08T11:55:18.005Z,80.45
2017-11-08T11:56:18.003Z,80.93
2017-11-08T11:57:18.000Z,81.97
2017-11-08T11:58:18.000Z,81.78
2017-11-08T11:59:17.996Z,81.87
2017-11-08T12:00:17.993Z,81.49
2017-11-08T12:01:17.991Z,81.21
2017-11-08T12:02:17.989Z,81.02
2017-11-08T12:03:17.986Z,81.78
2017-11-08T12:04:17.986Z,80.74
2017-11-08T12:05:17.982Z,79.03
2017-11-08T12:06:17.980Z,79.22
2017-11-08T12:07:17.976Z,79.12
2017-11-08T12:08:17.974Z,79.22
2017-11-08T12:09:17.973Z,80.07
2017-11-08T12:10:17.969Z,79.88
2017-11-08T12:11:17.966Z,80.93
2017-11-08T12:12:17.965Z,80.26
2017-11-08T12:13:17.964Z,80.35
2017-11-08T12:14:17.961Z,80.07
2017-11-08T12:15:18.007Z,80.74
2017-11-08T12:16:17.955Z,81.59
2017-11-08T12:17:17.953Z,80.55
2017-11-08T12:18:17.951Z,80.83
2017-11-08T12:19:17.949Z,81.40
2017-11-08T12:20:17.947Z,81.49
2017-11-08T12:21:17.952Z,81.87
2017-11-08T12:22:17.943Z,81.59
2017-11-08T12:23:17.938Z,81.21
2017-11-08T12:24:17.935Z,81.02
2017-11-08T12:25:17.935Z,81.97
2017-11-08T12:26:17.931Z,81.02
2017-11-08T12:27:17.928Z,81.68
2017-11-08T12:28:17.927Z,81.40
2017-11-08T12:29:17.923Z,82.16
2017-11-08T12:30:17.923Z,81.68
2017-11-08T12:31:17.917Z,81.40
2017-11-08T12:32:17.921Z,81.02
2017-11-08T12:33:17.914Z,81.12
2017-11-08T12:34:17.912Z,81.21
2017-11-08T12:35:17.909Z,81.40
2017-11-08T12:36:17.906Z,80.93
2017-11-08T12:37:17.904Z,81.21
2017-11-08T12:38:17.902Z,80.64
2017-11-08T12:39:17.898Z,81.02
2017-11-08T12:40:17.896Z,81.12
2017-11-08T12:41:17.896Z,80.93
2017-11-08T12:42:17.894Z,81.49
2017-11-08T12:43:17.890Z,81.02
2017-11-08T12:44:17.886Z,81.40
2017-11-08T12:45:17.884Z,81.87
2017-11-08T12:46:17.884Z,81.87
2017-11-08T12:47:17.879Z,81.02
2017-11-08T12:48:17.876Z,81.21
2017-11-08T12:49:17.877Z,81.02
2017-11-08T12:50:17.874Z,80.55
2017-11-08T12:51:17.870Z,81.21
2017-11-08T12:52:17.866Z,81.12